sensor_id;sensor_type;location;lat;lon;timestamp;P1;durP1;ratioP1;P2;durP2;ratioP2
12218;SDS011;6172;42.646;23.344;2023-06-24T00:02:10;10.82;;;9.57;;
12218;SDS011;6172;42.646;23.344;2023-06-24T00:04:37;13.80;;;10.20;;
12218;SDS011;6172;42.646;23.344;2023-06-24T00:07:04;13.15;;;10.10;;
12218;SDS011;6172;42.646;23.344;2023-06-24T00:09:31;10.98;;;9.88;;
12218;SDS011;6172;42.646;23.344;2023-06-24T00:12:02;12.77;;;9.88;;
12218;SDS011;6172;42.646;23.344;2023-06-24T00:14:29;10.80;;;9.45;;
12218;SDS011;6172;42.646;23.344;2023-06-24T00:16:57;10.40;;;9.40;;
12218;SDS011;6172;42.646;23.344;2023-06-24T00:19:24;10.35;;;9.35;;
12218;SDS011;6172;42.646;23.344;2023-06-24T00:21:52;10.88;;;9.77;;
12218;SDS011;6172;42.646;23.344;2023-06-24T00:24:19;12.55;;;9.98;;
12218;SDS011;6172;42.646;23.344;2023-06-24T00:26:50;10.95;;;9.15;;
12218;SDS011;6172;42.646;23.344;2023-06-24T00:29:19;10.60;;;9.50;;
12218;SDS011;6172;42.646;23.344;2023-06-24T00:31:46;10.77;;;9.77;;
12218;SDS011;6172;42.646;23.344;2023-06-24T00:34:13;10.55;;;9.55;;
12218;SDS011;6172;42.646;23.344;2023-06-24T00:36:41;11.13;;;9.77;;
12218;SDS011;6172;42.646;23.344;2023-06-24T00:39:09;12.50;;;10.13;;
12218;SDS011;6172;42.646;23.344;2023-06-24T00:41:36;11.70;;;9.70;;
12218;SDS011;6172;42.646;23.344;2023-06-24T00:44:03;10.48;;;9.38;;
12218;SDS011;6172;42.646;23.344;2023-06-24T00:46:31;11.38;;;9.10;;
12218;SDS011;6172;42.646;23.344;2023-06-24T00:48:59;10.82;;;9.73;;
12218;SDS011;6172;42.646;23.344;2023-06-24T00:51:28;11.25;;;10.10;;
12218;SDS011;6172;42.646;23.344;2023-06-24T00:53:56;11.00;;;9.80;;
12218;SDS011;6172;42.646;23.344;2023-06-24T00:56:25;10.05;;;9.15;;
12218;SDS011;6172;42.646;23.344;2023-06-24T00:58:56;10.75;;;9.65;;
12218;SDS011;6172;42.646;23.344;2023-06-24T01:01:26;12.25;;;9.93;;
12218;SDS011;6172;42.646;23.344;2023-06-24T01:03:58;14.40;;;9.98;;
12218;SDS011;6172;42.646;23.344;2023-06-24T01:06:25;11.00;;;9.90;;
12218;SDS011;6172;42.646;23.344;2023-06-24T01:08:54;11.73;;;9.88;;
12218;SDS011;6172;42.646;23.344;2023-06-24T01:11:23;11.00;;;9.32;;
12218;SDS011;6172;42.646;23.344;2023-06-24T01:13:50;10.35;;;9.25;;
12218;SDS011;6172;42.646;23.344;2023-06-24T01:16:20;11.13;;;9.43;;
12218;SDS011;6172;42.646;23.344;2023-06-24T01:18:53;10.45;;;9.38;;
12218;SDS011;6172;42.646;23.344;2023-06-24T01:21:46;10.68;;;9.65;;
12218;SDS011;6172;42.646;23.344;2023-06-24T01:24:31;10.82;;;9.50;;
12218;SDS011;6172;42.646;23.344;2023-06-24T01:27:19;12.65;;;9.38;;
12218;SDS011;6172;42.646;23.344;2023-06-24T01:29:59;10.18;;;9.15;;
12218;SDS011;6172;42.646;23.344;2023-06-24T01:32:43;11.20;;;10.10;;
12218;SDS011;6172;42.646;23.344;2023-06-24T01:35:15;12.85;;;9.35;;
12218;SDS011;6172;42.646;23.344;2023-06-24T01:37:46;11.43;;;10.13;;
12218;SDS011;6172;42.646;23.344;2023-06-24T01:40:18;11.23;;;10.02;;
12218;SDS011;6172;42.646;23.344;2023-06-24T01:42:49;12.75;;;10.35;;
12218;SDS011;6172;42.646;23.344;2023-06-24T01:45:17;11.95;;;10.18;;
12218;SDS011;6172;42.646;23.344;2023-06-24T01:47:51;12.15;;;10.85;;
12218;SDS011;6172;42.646;23.344;2023-06-24T01:50:24;11.63;;;10.25;;
12218;SDS011;6172;42.646;23.344;2023-06-24T01:52:52;12.57;;;10.98;;
12218;SDS011;6172;42.646;23.344;2023-06-24T01:55:21;13.32;;;10.35;;
12218;SDS011;6172;42.646;23.344;2023-06-24T01:57:51;13.75;;;10.45;;
12218;SDS011;6172;42.646;23.344;2023-06-24T02:00:20;13.82;;;10.77;;
12218;SDS011;6172;42.646;23.344;2023-06-24T02:02:51;12.40;;;10.32;;
12218;SDS011;6172;42.646;23.344;2023-06-24T02:05:19;13.07;;;10.50;;
12218;SDS011;6172;42.646;23.344;2023-06-24T02:07:48;13.43;;;10.68;;
12218;SDS011;6172;42.646;23.344;2023-06-24T02:10:16;12.50;;;11.18;;
12218;SDS011;6172;42.646;23.344;2023-06-24T02:12:44;13.38;;;11.10;;
12218;SDS011;6172;42.646;23.344;2023-06-24T02:15:14;13.05;;;11.75;;
12218;SDS011;6172;42.646;23.344;2023-06-24T02:17:41;13.95;;;12.52;;
12218;SDS011;6172;42.646;23.344;2023-06-24T02:20:11;13.48;;;11.57;;
12218;SDS011;6172;42.646;23.344;2023-06-24T02:22:41;13.50;;;11.68;;
12218;SDS011;6172;42.646;23.344;2023-06-24T02:25:10;16.52;;;12.32;;
12218;SDS011;6172;42.646;23.344;2023-06-24T02:27:37;15.07;;;12.25;;
12218;SDS011;6172;42.646;23.344;2023-06-24T02:30:07;13.15;;;11.75;;
12218;SDS011;6172;42.646;23.344;2023-06-24T02:32:35;14.25;;;12.20;;
12218;SDS011;6172;42.646;23.344;2023-06-24T02:35:03;16.63;;;12.38;;
12218;SDS011;6172;42.646;23.344;2023-06-24T02:37:33;15.43;;;11.70;;
12218;SDS011;6172;42.646;23.344;2023-06-24T02:40:01;15.45;;;12.27;;
12218;SDS011;6172;42.646;23.344;2023-06-24T02:42:30;13.98;;;12.48;;
12218;SDS011;6172;42.646;23.344;2023-06-24T02:44:59;13.60;;;12.10;;
12218;SDS011;6172;42.646;23.344;2023-06-24T02:47:27;16.73;;;12.13;;
12218;SDS011;6172;42.646;23.344;2023-06-24T02:49:55;14.90;;;12.60;;
12218;SDS011;6172;42.646;23.344;2023-06-24T02:52:24;13.50;;;11.35;;
12218;SDS011;6172;42.646;23.344;2023-06-24T02:54:55;15.85;;;12.88;;
12218;SDS011;6172;42.646;23.344;2023-06-24T02:57:23;15.52;;;11.80;;
12218;SDS011;6172;42.646;23.344;2023-06-24T02:59:51;14.82;;;13.13;;
12218;SDS011;6172;42.646;23.344;2023-06-24T03:02:18;13.45;;;12.00;;
12218;SDS011;6172;42.646;23.344;2023-06-24T03:04:45;13.57;;;11.77;;
12218;SDS011;6172;42.646;23.344;2023-06-24T03:07:13;13.55;;;11.85;;
12218;SDS011;6172;42.646;23.344;2023-06-24T03:09:40;14.73;;;11.70;;
12218;SDS011;6172;42.646;23.344;2023-06-24T03:12:08;15.10;;;12.20;;
12218;SDS011;6172;42.646;23.344;2023-06-24T03:14:35;13.82;;;12.43;;
12218;SDS011;6172;42.646;23.344;2023-06-24T03:17:03;14.68;;;11.80;;
12218;SDS011;6172;42.646;23.344;2023-06-24T03:19:30;17.10;;;12.45;;
12218;SDS011;6172;42.646;23.344;2023-06-24T03:21:56;13.07;;;11.60;;
12218;SDS011;6172;42.646;23.344;2023-06-24T03:24:27;16.98;;;12.32;;
12218;SDS011;6172;42.646;23.344;2023-06-24T03:26:54;14.18;;;12.07;;
12218;SDS011;6172;42.646;23.344;2023-06-24T03:29:23;14.93;;;12.75;;
12218;SDS011;6172;42.646;23.344;2023-06-24T03:31:50;14.52;;;12.25;;
12218;SDS011;6172;42.646;23.344;2023-06-24T03:34:17;15.32;;;12.38;;
12218;SDS011;6172;42.646;23.344;2023-06-24T03:36:44;15.45;;;12.98;;
12218;SDS011;6172;42.646;23.344;2023-06-24T03:39:11;15.52;;;12.32;;
12218;SDS011;6172;42.646;23.344;2023-06-24T03:41:38;18.60;;;12.63;;
12218;SDS011;6172;42.646;23.344;2023-06-24T03:44:05;14.70;;;12.65;;
12218;SDS011;6172;42.646;23.344;2023-06-24T03:46:34;15.23;;;12.60;;
12218;SDS011;6172;42.646;23.344;2023-06-24T03:49:01;14.52;;;13.02;;
12218;SDS011;6172;42.646;23.344;2023-06-24T03:51:28;17.50;;;12.45;;
12218;SDS011;6172;42.646;23.344;2023-06-24T03:53:55;16.65;;;13.88;;
12218;SDS011;6172;42.646;23.344;2023-06-24T03:56:22;16.65;;;12.75;;
12218;SDS011;6172;42.646;23.344;2023-06-24T03:58:48;14.68;;;13.13;;
12218;SDS011;6172;42.646;23.344;2023-06-24T04:01:16;19.48;;;13.25;;
12218;SDS011;6172;42.646;23.344;2023-06-24T04:03:48;18.33;;;15.10;;
12218;SDS011;6172;42.646;23.344;2023-06-24T04:06:15;16.42;;;13.13;;
12218;SDS011;6172;42.646;23.344;2023-06-24T04:08:42;18.23;;;14.57;;
12218;SDS011;6172;42.646;23.344;2023-06-24T04:11:09;15.85;;;13.70;;
12218;SDS011;6172;42.646;23.344;2023-06-24T04:13:36;18.38;;;13.57;;
12218;SDS011;6172;42.646;23.344;2023-06-24T04:16:04;17.98;;;14.10;;
12218;SDS011;6172;42.646;23.344;2023-06-24T04:18:31;18.58;;;14.50;;
12218;SDS011;6172;42.646;23.344;2023-06-24T04:20:59;17.05;;;14.13;;
12218;SDS011;6172;42.646;23.344;2023-06-24T04:23:26;20.73;;;14.82;;
12218;SDS011;6172;42.646;23.344;2023-06-24T04:25:53;16.98;;;14.10;;
12218;SDS011;6172;42.646;23.344;2023-06-24T04:28:20;20.65;;;14.73;;
12218;SDS011;6172;42.646;23.344;2023-06-24T04:30:47;16.83;;;15.05;;
12218;SDS011;6172;42.646;23.344;2023-06-24T04:33:14;17.00;;;14.63;;
12218;SDS011;6172;42.646;23.344;2023-06-24T04:35:40;14.57;;;12.88;;
12218;SDS011;6172;42.646;23.344;2023-06-24T04:38:10;16.52;;;13.48;;
12218;SDS011;6172;42.646;23.344;2023-06-24T04:40:43;18.35;;;13.40;;
12218;SDS011;6172;42.646;23.344;2023-06-24T04:43:10;14.10;;;12.63;;
12218;SDS011;6172;42.646;23.344;2023-06-24T04:45:37;21.10;;;13.73;;
12218;SDS011;6172;42.646;23.344;2023-06-24T04:48:04;15.23;;;12.52;;
12218;SDS011;6172;42.646;23.344;2023-06-24T04:50:31;17.98;;;12.50;;
12218;SDS011;6172;42.646;23.344;2023-06-24T04:52:58;13.23;;;11.68;;
12218;SDS011;6172;42.646;23.344;2023-06-24T04:55:28;17.50;;;12.57;;
12218;SDS011;6172;42.646;23.344;2023-06-24T04:57:56;17.65;;;12.05;;
12218;SDS011;6172;42.646;23.344;2023-06-24T05:00:23;13.95;;;12.20;;
12218;SDS011;6172;42.646;23.344;2023-06-24T05:02:50;20.60;;;13.90;;
12218;SDS011;6172;42.646;23.344;2023-06-24T05:05:17;15.65;;;13.18;;
12218;SDS011;6172;42.646;23.344;2023-06-24T05:07:45;14.63;;;13.13;;
12218;SDS011;6172;42.646;23.344;2023-06-24T05:10:12;15.93;;;12.55;;
12218;SDS011;6172;42.646;23.344;2023-06-24T05:12:40;14.55;;;13.05;;
12218;SDS011;6172;42.646;23.344;2023-06-24T05:15:08;15.15;;;12.02;;
12218;SDS011;6172;42.646;23.344;2023-06-24T05:17:35;13.60;;;12.20;;
12218;SDS011;6172;42.646;23.344;2023-06-24T05:20:02;13.15;;;11.82;;
12218;SDS011;6172;42.646;23.344;2023-06-24T05:22:29;12.93;;;11.45;;
12218;SDS011;6172;42.646;23.344;2023-06-24T05:24:56;12.30;;;11.10;;
12218;SDS011;6172;42.646;23.344;2023-06-24T05:27:26;11.70;;;10.48;;
12218;SDS011;6172;42.646;23.344;2023-06-24T05:29:54;11.10;;;10.02;;
12218;SDS011;6172;42.646;23.344;2023-06-24T05:32:21;11.57;;;9.88;;
12218;SDS011;6172;42.646;23.344;2023-06-24T05:34:48;12.43;;;9.32;;
12218;SDS011;6172;42.646;23.344;2023-06-24T05:37:15;10.02;;;9.13;;
12218;SDS011;6172;42.646;23.344;2023-06-24T05:39:42;11.38;;;10.05;;
12218;SDS011;6172;42.646;23.344;2023-06-24T05:42:09;10.43;;;9.32;;
12218;SDS011;6172;42.646;23.344;2023-06-24T05:44:36;11.13;;;9.98;;
12218;SDS011;6172;42.646;23.344;2023-06-24T05:47:04;10.60;;;9.43;;
12218;SDS011;6172;42.646;23.344;2023-06-24T05:49:32;14.40;;;10.13;;
12218;SDS011;6172;42.646;23.344;2023-06-24T05:51:59;10.85;;;9.73;;
12218;SDS011;6172;42.646;23.344;2023-06-24T05:54:26;13.30;;;10.68;;
12218;SDS011;6172;42.646;23.344;2023-06-24T05:56:53;11.30;;;10.07;;
12218;SDS011;6172;42.646;23.344;2023-06-24T05:59:20;13.90;;;11.15;;
12218;SDS011;6172;42.646;23.344;2023-06-24T06:01:47;14.38;;;11.35;;
12218;SDS011;6172;42.646;23.344;2023-06-24T06:04:15;15.63;;;11.57;;
12218;SDS011;6172;42.646;23.344;2023-06-24T06:06:43;13.20;;;11.73;;
12218;SDS011;6172;42.646;23.344;2023-06-24T06:09:13;14.80;;;12.25;;
12218;SDS011;6172;42.646;23.344;2023-06-24T06:11:40;13.52;;;12.02;;
12218;SDS011;6172;42.646;23.344;2023-06-24T06:14:07;12.43;;;11.00;;
12218;SDS011;6172;42.646;23.344;2023-06-24T06:16:34;11.15;;;9.73;;
12218;SDS011;6172;42.646;23.344;2023-06-24T06:19:01;12.13;;;9.88;;
12218;SDS011;6172;42.646;23.344;2023-06-24T06:21:29;12.05;;;10.85;;
12218;SDS011;6172;42.646;23.344;2023-06-24T06:23:56;13.35;;;10.88;;
12218;SDS011;6172;42.646;23.344;2023-06-24T06:26:23;11.52;;;10.32;;
12218;SDS011;6172;42.646;23.344;2023-06-24T06:28:50;11.40;;;9.80;;
12218;SDS011;6172;42.646;23.344;2023-06-24T06:31:18;12.10;;;9.68;;
12218;SDS011;6172;42.646;23.344;2023-06-24T06:33:46;13.00;;;10.68;;
12218;SDS011;6172;42.646;23.344;2023-06-24T06:36:13;12.98;;;10.38;;
12218;SDS011;6172;42.646;23.344;2023-06-24T06:38:42;10.70;;;9.75;;
12218;SDS011;6172;42.646;23.344;2023-06-24T06:41:09;10.60;;;9.52;;
12218;SDS011;6172;42.646;23.344;2023-06-24T06:43:36;12.05;;;10.18;;
12218;SDS011;6172;42.646;23.344;2023-06-24T06:46:04;11.32;;;10.15;;
12218;SDS011;6172;42.646;23.344;2023-06-24T06:48:30;10.68;;;9.60;;
12218;SDS011;6172;42.646;23.344;2023-06-24T06:50:57;11.18;;;10.02;;
12218;SDS011;6172;42.646;23.344;2023-06-24T06:53:24;10.70;;;9.68;;
12218;SDS011;6172;42.646;23.344;2023-06-24T06:55:52;12.43;;;10.38;;
12218;SDS011;6172;42.646;23.344;2023-06-24T06:58:20;12.65;;;9.70;;
12218;SDS011;6172;42.646;23.344;2023-06-24T07:00:47;11.40;;;10.07;;
12218;SDS011;6172;42.646;23.344;2023-06-24T07:03:15;11.05;;;9.50;;
12218;SDS011;6172;42.646;23.344;2023-06-24T07:05:42;11.20;;;10.20;;
12218;SDS011;6172;42.646;23.344;2023-06-24T07:08:09;13.15;;;10.88;;
12218;SDS011;6172;42.646;23.344;2023-06-24T07:10:36;12.48;;;11.18;;
12218;SDS011;6172;42.646;23.344;2023-06-24T07:13:04;13.30;;;11.18;;
12218;SDS011;6172;42.646;23.344;2023-06-24T07:15:31;12.10;;;10.80;;
12218;SDS011;6172;42.646;23.344;2023-06-24T07:17:58;13.63;;;10.85;;
12218;SDS011;6172;42.646;23.344;2023-06-24T07:20:25;11.50;;;10.35;;
12218;SDS011;6172;42.646;23.344;2023-06-24T07:22:54;11.55;;;10.52;;
12218;SDS011;6172;42.646;23.344;2023-06-24T07:25:21;11.35;;;10.38;;
12218;SDS011;6172;42.646;23.344;2023-06-24T07:27:49;12.30;;;10.10;;
12218;SDS011;6172;42.646;23.344;2023-06-24T07:30:19;10.65;;;9.68;;
12218;SDS011;6172;42.646;23.344;2023-06-24T07:32:46;12.80;;;10.88;;
12218;SDS011;6172;42.646;23.344;2023-06-24T07:35:13;11.88;;;10.32;;
12218;SDS011;6172;42.646;23.344;2023-06-24T07:37:41;10.57;;;9.52;;
12218;SDS011;6172;42.646;23.344;2023-06-24T07:40:08;11.00;;;9.95;;
12218;SDS011;6172;42.646;23.344;2023-06-24T07:42:35;11.98;;;10.77;;
12218;SDS011;6172;42.646;23.344;2023-06-24T07:45:02;11.50;;;10.50;;
12218;SDS011;6172;42.646;23.344;2023-06-24T07:47:31;11.50;;;9.98;;
12218;SDS011;6172;42.646;23.344;2023-06-24T07:49:58;12.25;;;9.98;;
12218;SDS011;6172;42.646;23.344;2023-06-24T07:52:25;10.77;;;9.88;;
12218;SDS011;6172;42.646;23.344;2023-06-24T07:54:52;12.73;;;9.85;;
12218;SDS011;6172;42.646;23.344;2023-06-24T07:57:19;14.65;;;10.82;;
12218;SDS011;6172;42.646;23.344;2023-06-24T07:59:46;11.88;;;10.77;;
12218;SDS011;6172;42.646;23.344;2023-06-24T08:02:13;11.60;;;10.13;;
12218;SDS011;6172;42.646;23.344;2023-06-24T08:04:41;11.80;;;10.73;;
12218;SDS011;6172;42.646;23.344;2023-06-24T08:07:08;10.75;;;9.73;;
12218;SDS011;6172;42.646;23.344;2023-06-24T08:09:35;11.00;;;10.10;;
12218;SDS011;6172;42.646;23.344;2023-06-24T08:12:02;10.32;;;9.43;;
12218;SDS011;6172;42.646;23.344;2023-06-24T08:14:30;10.70;;;9.43;;
12218;SDS011;6172;42.646;23.344;2023-06-24T08:16:57;11.52;;;10.52;;
12218;SDS011;6172;42.646;23.344;2023-06-24T08:19:24;11.05;;;9.95;;
12218;SDS011;6172;42.646;23.344;2023-06-24T08:21:52;10.90;;;9.80;;
12218;SDS011;6172;42.646;23.344;2023-06-24T08:24:19;11.75;;;9.38;;
12218;SDS011;6172;42.646;23.344;2023-06-24T08:26:46;10.95;;;9.63;;
12218;SDS011;6172;42.646;23.344;2023-06-24T08:29:13;11.63;;;9.38;;
12218;SDS011;6172;42.646;23.344;2023-06-24T08:31:39;10.57;;;9.52;;
12218;SDS011;6172;42.646;23.344;2023-06-24T08:34:06;11.05;;;10.05;;
12218;SDS011;6172;42.646;23.344;2023-06-24T08:36:33;10.82;;;9.82;;
12218;SDS011;6172;42.646;23.344;2023-06-24T08:39:04;11.35;;;10.40;;
12218;SDS011;6172;42.646;23.344;2023-06-24T08:41:31;12.25;;;10.75;;
12218;SDS011;6172;42.646;23.344;2023-06-24T08:43:58;11.70;;;10.55;;
12218;SDS011;6172;42.646;23.344;2023-06-24T08:46:25;11.25;;;10.25;;
12218;SDS011;6172;42.646;23.344;2023-06-24T08:48:54;11.93;;;10.73;;
12218;SDS011;6172;42.646;23.344;2023-06-24T08:51:29;11.38;;;10.40;;
12218;SDS011;6172;42.646;23.344;2023-06-24T08:54:01;12.82;;;10.32;;
12218;SDS011;6172;42.646;23.344;2023-06-24T08:56:30;11.93;;;10.70;;
12218;SDS011;6172;42.646;23.344;2023-06-24T08:58:57;11.57;;;10.15;;
12218;SDS011;6172;42.646;23.344;2023-06-24T09:01:24;11.85;;;10.15;;
12218;SDS011;6172;42.646;23.344;2023-06-24T09:03:53;11.88;;;9.80;;
12218;SDS011;6172;42.646;23.344;2023-06-24T09:06:20;10.73;;;9.65;;
12218;SDS011;6172;42.646;23.344;2023-06-24T09:08:55;10.73;;;9.73;;
12218;SDS011;6172;42.646;23.344;2023-06-24T09:11:22;10.88;;;9.60;;
12218;SDS011;6172;42.646;23.344;2023-06-24T09:13:55;9.57;;;8.73;;
12218;SDS011;6172;42.646;23.344;2023-06-24T09:16:22;10.95;;;9.80;;
12218;SDS011;6172;42.646;23.344;2023-06-24T09:18:50;10.20;;;9.18;;
12218;SDS011;6172;42.646;23.344;2023-06-24T09:21:21;10.27;;;9.38;;
12218;SDS011;6172;42.646;23.344;2023-06-24T09:23:51;10.65;;;9.55;;
12218;SDS011;6172;42.646;23.344;2023-06-24T09:26:22;10.77;;;9.90;;
12218;SDS011;6172;42.646;23.344;2023-06-24T09:28:50;10.63;;;9.68;;
12218;SDS011;6172;42.646;23.344;2023-06-24T09:31:18;10.90;;;9.98;;
12218;SDS011;6172;42.646;23.344;2023-06-24T09:33:48;10.05;;;9.23;;
12218;SDS011;6172;42.646;23.344;2023-06-24T09:36:16;10.98;;;9.27;;
12218;SDS011;6172;42.646;23.344;2023-06-24T09:38:43;10.57;;;9.68;;
12218;SDS011;6172;42.646;23.344;2023-06-24T09:41:10;9.73;;;8.82;;
12218;SDS011;6172;42.646;23.344;2023-06-24T09:43:37;10.23;;;9.32;;
12218;SDS011;6172;42.646;23.344;2023-06-24T09:46:06;11.23;;;9.27;;
12218;SDS011;6172;42.646;23.344;2023-06-24T09:48:34;9.70;;;8.80;;
12218;SDS011;6172;42.646;23.344;2023-06-24T09:51:02;11.35;;;9.88;;
12218;SDS011;6172;42.646;23.344;2023-06-24T09:53:30;11.65;;;8.68;;
12218;SDS011;6172;42.646;23.344;2023-06-24T09:55:59;9.65;;;8.32;;
12218;SDS011;6172;42.646;23.344;2023-06-24T09:58:28;9.93;;;8.88;;
12218;SDS011;6172;42.646;23.344;2023-06-24T10:00:57;9.95;;;9.13;;
12218;SDS011;6172;42.646;23.344;2023-06-24T10:03:28;10.75;;;9.73;;
12218;SDS011;6172;42.646;23.344;2023-06-24T10:05:57;10.05;;;9.07;;
12218;SDS011;6172;42.646;23.344;2023-06-24T10:08:24;9.52;;;8.63;;
12218;SDS011;6172;42.646;23.344;2023-06-24T10:10:53;8.30;;;7.63;;
12218;SDS011;6172;42.646;23.344;2023-06-24T10:13:20;8.93;;;8.02;;
12218;SDS011;6172;42.646;23.344;2023-06-24T10:15:47;10.40;;;9.25;;
12218;SDS011;6172;42.646;23.344;2023-06-24T10:21:05;10.95;;;7.45;;
12218;SDS011;6172;42.646;23.344;2023-06-24T10:23:38;9.05;;;7.88;;
12218;SDS011;6172;42.646;23.344;2023-06-24T10:26:07;8.60;;;7.80;;
12218;SDS011;6172;42.646;23.344;2023-06-24T10:34:32;9.25;;;8.35;;
12218;SDS011;6172;42.646;23.344;2023-06-24T10:37:03;8.70;;;8.00;;
12218;SDS011;6172;42.646;23.344;2023-06-24T10:39:38;9.15;;;8.35;;
12218;SDS011;6172;42.646;23.344;2023-06-24T10:45:16;9.10;;;8.27;;
12218;SDS011;6172;42.646;23.344;2023-06-24T10:48:01;8.70;;;7.55;;
12218;SDS011;6172;42.646;23.344;2023-06-24T10:50:28;9.55;;;8.32;;
12218;SDS011;6172;42.646;23.344;2023-06-24T10:52:57;8.82;;;7.93;;
12218;SDS011;6172;42.646;23.344;2023-06-24T10:55:25;8.95;;;8.15;;
12218;SDS011;6172;42.646;23.344;2023-06-24T10:57:52;8.25;;;7.05;;
12218;SDS011;6172;42.646;23.344;2023-06-24T11:00:20;8.70;;;7.60;;
12218;SDS011;6172;42.646;23.344;2023-06-24T11:02:48;8.68;;;7.97;;
12218;SDS011;6172;42.646;23.344;2023-06-24T11:05:16;8.85;;;7.75;;
12218;SDS011;6172;42.646;23.344;2023-06-24T11:07:42;8.80;;;7.88;;
12218;SDS011;6172;42.646;23.344;2023-06-24T11:10:12;7.70;;;7.10;;
12218;SDS011;6172;42.646;23.344;2023-06-24T11:12:41;7.80;;;7.20;;
12218;SDS011;6172;42.646;23.344;2023-06-24T11:15:09;7.97;;;7.18;;
12218;SDS011;6172;42.646;23.344;2023-06-24T11:17:37;8.07;;;7.43;;
12218;SDS011;6172;42.646;23.344;2023-06-24T11:20:06;8.13;;;7.28;;
12218;SDS011;6172;42.646;23.344;2023-06-24T11:22:34;7.93;;;7.10;;
12218;SDS011;6172;42.646;23.344;2023-06-24T11:25:01;7.70;;;6.97;;
12218;SDS011;6172;42.646;23.344;2023-06-24T11:27:30;8.32;;;7.53;;
12218;SDS011;6172;42.646;23.344;2023-06-24T11:29:58;8.13;;;7.35;;
12218;SDS011;6172;42.646;23.344;2023-06-24T11:32:34;7.95;;;7.25;;
12218;SDS011;6172;42.646;23.344;2023-06-24T11:35:02;10.68;;;6.38;;
12218;SDS011;6172;42.646;23.344;2023-06-24T11:37:30;7.05;;;6.50;;
12218;SDS011;6172;42.646;23.344;2023-06-24T11:40:02;7.60;;;6.88;;
12218;SDS011;6172;42.646;23.344;2023-06-24T11:42:33;7.55;;;6.85;;
12218;SDS011;6172;42.646;23.344;2023-06-24T11:45:02;7.47;;;6.80;;
12218;SDS011;6172;42.646;23.344;2023-06-24T11:47:31;8.65;;;7.07;;
12218;SDS011;6172;42.646;23.344;2023-06-24T11:49:59;6.53;;;5.97;;
12218;SDS011;6172;42.646;23.344;2023-06-24T11:55:15;8.68;;;6.82;;
12218;SDS011;6172;42.646;23.344;2023-06-24T11:57:51;8.85;;;7.38;;
12218;SDS011;6172;42.646;23.344;2023-06-24T12:00:20;7.22;;;6.63;;
12218;SDS011;6172;42.646;23.344;2023-06-24T12:02:55;7.03;;;6.43;;
12218;SDS011;6172;42.646;23.344;2023-06-24T12:05:23;6.72;;;6.18;;
12218;SDS011;6172;42.646;23.344;2023-06-24T12:07:55;7.22;;;6.45;;
12218;SDS011;6172;42.646;23.344;2023-06-24T12:10:23;10.73;;;7.18;;
12218;SDS011;6172;42.646;23.344;2023-06-24T12:12:52;7.45;;;6.72;;
12218;SDS011;6172;42.646;23.344;2023-06-24T12:15:19;7.82;;;7.05;;
12218;SDS011;6172;42.646;23.344;2023-06-24T12:17:48;8.30;;;6.75;;
12218;SDS011;6172;42.646;23.344;2023-06-24T12:20:16;8.00;;;7.20;;
12218;SDS011;6172;42.646;23.344;2023-06-24T12:22:43;8.45;;;7.38;;
12218;SDS011;6172;42.646;23.344;2023-06-24T12:25:11;7.53;;;6.80;;
12218;SDS011;6172;42.646;23.344;2023-06-24T12:27:38;8.98;;;7.07;;
12218;SDS011;6172;42.646;23.344;2023-06-24T12:30:08;8.30;;;7.07;;
12218;SDS011;6172;42.646;23.344;2023-06-24T12:32:36;7.75;;;6.90;;
12218;SDS011;6172;42.646;23.344;2023-06-24T12:35:03;7.55;;;6.85;;
12218;SDS011;6172;42.646;23.344;2023-06-24T12:37:30;10.90;;;7.47;;
12218;SDS011;6172;42.646;23.344;2023-06-24T12:39:58;7.57;;;6.97;;
12218;SDS011;6172;42.646;23.344;2023-06-24T12:42:25;8.43;;;6.88;;
12218;SDS011;6172;42.646;23.344;2023-06-24T12:44:52;8.35;;;7.55;;
12218;SDS011;6172;42.646;23.344;2023-06-24T12:47:22;8.50;;;7.70;;
12218;SDS011;6172;42.646;23.344;2023-06-24T12:49:49;8.23;;;7.38;;
12218;SDS011;6172;42.646;23.344;2023-06-24T12:52:16;9.35;;;7.68;;
12218;SDS011;6172;42.646;23.344;2023-06-24T12:54:43;9.07;;;7.35;;
12218;SDS011;6172;42.646;23.344;2023-06-24T12:57:10;7.60;;;6.80;;
12218;SDS011;6172;42.646;23.344;2023-06-24T12:59:37;6.88;;;6.15;;
12218;SDS011;6172;42.646;23.344;2023-06-24T13:02:04;6.80;;;6.15;;
12218;SDS011;6172;42.646;23.344;2023-06-24T13:04:33;7.00;;;6.40;;
12218;SDS011;6172;42.646;23.344;2023-06-24T13:07:00;6.85;;;6.18;;
12218;SDS011;6172;42.646;23.344;2023-06-24T13:09:28;6.82;;;6.30;;
12218;SDS011;6172;42.646;23.344;2023-06-24T13:11:55;7.03;;;6.38;;
12218;SDS011;6172;42.646;23.344;2023-06-24T13:14:23;6.95;;;6.30;;
12218;SDS011;6172;42.646;23.344;2023-06-24T13:16:53;6.68;;;6.07;;
12218;SDS011;6172;42.646;23.344;2023-06-24T13:19:20;12.02;;;6.80;;
12218;SDS011;6172;42.646;23.344;2023-06-24T13:21:51;8.27;;;6.40;;
12218;SDS011;6172;42.646;23.344;2023-06-24T13:24:18;8.52;;;6.70;;
12218;SDS011;6172;42.646;23.344;2023-06-24T13:26:46;7.47;;;6.55;;
12218;SDS011;6172;42.646;23.344;2023-06-24T13:29:13;7.30;;;6.28;;
12218;SDS011;6172;42.646;23.344;2023-06-24T13:31:39;7.00;;;6.15;;
12218;SDS011;6172;42.646;23.344;2023-06-24T13:34:06;8.18;;;7.35;;
12218;SDS011;6172;42.646;23.344;2023-06-24T13:36:34;11.30;;;7.10;;
12218;SDS011;6172;42.646;23.344;2023-06-24T13:39:04;15.68;;;8.65;;
12218;SDS011;6172;42.646;23.344;2023-06-24T13:41:31;15.40;;;7.75;;
12218;SDS011;6172;42.646;23.344;2023-06-24T13:43:59;14.00;;;7.18;;
12218;SDS011;6172;42.646;23.344;2023-06-24T13:46:27;15.52;;;6.95;;
12218;SDS011;6172;42.646;23.344;2023-06-24T13:48:56;7.90;;;6.25;;
12218;SDS011;6172;42.646;23.344;2023-06-24T13:51:24;13.55;;;6.78;;
12218;SDS011;6172;42.646;23.344;2023-06-24T13:53:52;14.80;;;6.70;;
12218;SDS011;6172;42.646;23.344;2023-06-24T13:56:21;15.05;;;7.65;;
12218;SDS011;6172;42.646;23.344;2023-06-24T13:58:50;16.33;;;7.00;;
12218;SDS011;6172;42.646;23.344;2023-06-24T14:01:17;18.05;;;7.60;;
12218;SDS011;6172;42.646;23.344;2023-06-24T14:03:44;10.93;;;6.78;;
12218;SDS011;6172;42.646;23.344;2023-06-24T14:06:12;14.10;;;6.45;;
12218;SDS011;6172;42.646;23.344;2023-06-24T14:08:40;10.65;;;6.60;;
12218;SDS011;6172;42.646;23.344;2023-06-24T14:11:07;17.70;;;6.35;;
12218;SDS011;6172;42.646;23.344;2023-06-24T14:13:36;16.05;;;7.22;;
12218;SDS011;6172;42.646;23.344;2023-06-24T14:16:03;11.95;;;7.00;;
12218;SDS011;6172;42.646;23.344;2023-06-24T14:18:30;13.13;;;6.70;;
12218;SDS011;6172;42.646;23.344;2023-06-24T14:20:58;8.50;;;6.45;;
12218;SDS011;6172;42.646;23.344;2023-06-24T14:23:25;9.27;;;5.78;;
12218;SDS011;6172;42.646;23.344;2023-06-24T14:25:52;8.70;;;5.47;;
12218;SDS011;6172;42.646;23.344;2023-06-24T14:28:19;9.05;;;5.70;;
12218;SDS011;6172;42.646;23.344;2023-06-24T14:30:48;6.63;;;5.22;;
12218;SDS011;6172;42.646;23.344;2023-06-24T14:33:15;9.27;;;4.88;;
12218;SDS011;6172;42.646;23.344;2023-06-24T14:35:42;8.55;;;5.18;;
12218;SDS011;6172;42.646;23.344;2023-06-24T14:38:10;7.35;;;5.10;;
12218;SDS011;6172;42.646;23.344;2023-06-24T14:40:38;7.13;;;5.53;;
12218;SDS011;6172;42.646;23.344;2023-06-24T14:43:05;8.88;;;5.78;;
12218;SDS011;6172;42.646;23.344;2023-06-24T14:45:32;8.45;;;5.93;;
12218;SDS011;6172;42.646;23.344;2023-06-24T14:48:00;9.52;;;6.28;;
12218;SDS011;6172;42.646;23.344;2023-06-24T14:50:27;12.20;;;6.15;;
12218;SDS011;6172;42.646;23.344;2023-06-24T14:52:55;11.38;;;6.00;;
12218;SDS011;6172;42.646;23.344;2023-06-24T14:55:22;10.40;;;6.03;;